Time;durP1;ratioP1;P1;durP2;ratioP2;P2;SDS_P1;SDS_P2;PMS_P1;PMS_P2;Temp;Humidity;BMP_temperature;BMP_pressure;BME280_temperature;BME280_humidity;BME280_pressure;Samples;Min_cycle;Max_cycle;Signal;HPM_P1;HPM_P2
2021/07/06 00:02:25;;;;;;;7.50;4.25;;;19.40;91.70;;;;;;4993336;28;20519;-76
2021/07/06 00:04:59;;;;;;;9.23;4.57;;;19.40;91.70;;;;;;4993666;28;20474;-76
2021/07/06 00:07:25;;;;;;;8.57;5.00;;;19.40;91.70;;;;;;4976319;28;20528;-77
2021/07/06 00:09:51;;;;;;;8.75;4.95;;;19.40;91.70;;;;;;4976287;28;20394;-77
2021/07/06 00:12:17;;;;;;;10.85;5.07;;;19.50;91.70;;;;;;4976356;28;20018;-76
2021/07/06 00:14:43;;;;;;;9.02;4.30;;;19.50;91.80;;;;;;4975688;28;20018;-77
2021/07/06 00:17:09;;;;;;;10.10;4.35;;;19.40;91.80;;;;;;4976102;28;20028;-77
2021/07/06 00:19:35;;;;;;;8.30;4.65;;;19.40;91.80;;;;;;4975107;28;20050;-77
2021/07/06 00:22:01;;;;;;;8.30;4.65;;;19.40;91.90;;;;;;4976354;28;20374;-77
2021/07/06 00:24:26;;;;;;;7.28;4.68;;;19.40;92.00;;;;;;4975433;28;20489;-76
2021/07/06 00:26:52;;;;;;;5.97;3.55;;;19.40;92.00;;;;;;4976189;28;20026;-77
2021/07/06 00:29:18;;;;;;;6.55;3.55;;;19.30;92.00;;;;;;4975664;28;20038;-77
2021/07/06 00:31:43;;;;;;;6.60;3.30;;;19.30;92.10;;;;;;4975373;28;20022;-77
2021/07/06 00:34:09;;;;;;;4.55;2.75;;;19.30;92.10;;;;;;4993510;28;20106;-78
2021/07/06 00:36:35;;;;;;;5.75;3.22;;;19.40;92.20;;;;;;4993063;28;20053;-77
2021/07/06 00:39:00;;;;;;;5.25;2.60;;;19.30;92.20;;;;;;4975719;28;20367;-77
2021/07/06 00:41:29;;;;;;;3.15;1.98;;;19.30;92.20;;;;;;4975237;28;20512;-78
2021/07/06 00:43:55;;;;;;;3.58;2.20;;;19.30;92.20;;;;;;4975767;28;20023;-77
2021/07/06 00:46:21;;;;;;;2.85;1.83;;;19.30;92.20;;;;;;4975733;28;20034;-77
2021/07/06 00:48:46;;;;;;;3.22;2.10;;;19.30;92.20;;;;;;4992855;28;20077;-77
2021/07/06 00:51:12;;;;;;;4.65;2.28;;;19.30;92.20;;;;;;4975717;28;20382;-77
2021/07/06 00:53:39;;;;;;;2.17;1.50;;;19.30;92.20;;;;;;4975102;28;20072;-77
2021/07/06 00:56:05;;;;;;;3.63;1.90;;;19.30;92.20;;;;;;4992874;28;20022;-77
2021/07/06 00:58:31;;;;;;;3.70;1.85;;;19.30;92.20;;;;;;4974933;28;20037;-77
2021/07/06 01:00:57;;;;;;;4.10;2.30;;;19.30;92.20;;;;;;4975631;28;20032;-77
2021/07/06 01:03:23;;;;;;;3.35;1.85;;;19.30;92.20;;;;;;4992813;28;20390;-77
2021/07/06 01:05:49;;;;;;;3.67;1.80;;;19.30;92.20;;;;;;4974917;28;20360;-77
2021/07/06 01:08:15;;;;;;;3.30;1.65;;;19.30;92.20;;;;;;4975381;28;20029;-77
2021/07/06 01:10:41;;;;;;;2.28;1.70;;;19.30;92.30;;;;;;4974745;28;20034;-77
2021/07/06 01:13:08;;;;;;;3.95;1.90;;;19.40;92.30;;;;;;4992897;28;20026;-77
2021/07/06 01:15:35;;;;;;;2.65;1.75;;;19.30;92.30;;;;;;4974450;28;20130;-77
2021/07/06 01:18:15;;;;;;;3.20;2.05;;;19.30;92.30;;;;;;4975042;28;20393;-77
2021/07/06 01:20:48;;;;;;;3.40;1.67;;;19.30;92.40;;;;;;4992060;28;20113;-77
2021/07/06 01:23:17;;;;;;;2.75;1.52;;;19.30;92.40;;;;;;4975324;28;20436;-77
2021/07/06 01:25:43;;;;;;;2.25;1.50;;;19.30;92.30;;;;;;4992032;28;20018;-77
2021/07/06 01:28:09;;;;;;;3.95;1.80;;;19.30;92.30;;;;;;4975238;28;20022;-77
2021/07/06 01:30:36;;;;;;;3.30;1.73;;;19.30;92.30;;;;;;4991896;28;20485;-77
2021/07/06 01:33:02;;;;;;;2.17;1.55;;;19.30;92.30;;;;;;4992315;28;20362;-77
2021/07/06 01:35:29;;;;;;;2.38;1.55;;;19.30;92.30;;;;;;4974215;28;20034;-78
2021/07/06 01:38:00;;;;;;;2.60;1.27;;;19.40;92.40;;;;;;4975152;28;20023;-76
2021/07/06 01:40:27;;;;;;;2.33;1.58;;;19.40;92.30;;;;;;4977342;28;20022;-77
2021/07/06 01:42:55;;;;;;;2.55;1.50;;;19.40;92.30;;;;;;4979054;28;20439;-76
2021/07/06 01:45:23;;;;;;;2.33;1.38;;;19.40;92.30;;;;;;4996310;28;20045;-76
2021/07/06 01:47:51;;;;;;;3.17;1.20;;;19.40;92.40;;;;;;4996137;28;20478;-76
2021/07/06 01:50:20;;;;;;;1.60;1.25;;;19.40;92.40;;;;;;4978841;28;20489;-75
2021/07/06 01:52:51;;;;;;;1.33;1.20;;;19.30;92.30;;;;;;4978294;28;20022;-75
2021/07/06 01:55:23;;;;;;;2.38;1.20;;;19.30;92.40;;;;;;4996382;28;20027;-76
2021/07/06 01:57:51;;;;;;;1.10;0.90;;;19.30;92.40;;;;;;4978303;28;20113;-76
2021/07/06 02:00:19;;;;;;;1.88;1.10;;;19.30;92.40;;;;;;4978721;28;20478;-77
2021/07/06 02:02:45;;;;;;;0.95;0.82;;;19.30;92.40;;;;;;4996080;28;20105;-77
2021/07/06 02:05:14;;;;;;;1.10;0.98;;;19.30;92.40;;;;;;4978634;28;20113;-77
2021/07/06 02:07:40;;;;;;;1.15;0.88;;;19.30;92.50;;;;;;4978137;28;20082;-77
2021/07/06 02:10:07;;;;;;;1.73;1.00;;;19.20;92.30;;;;;;4978160;28;20041;-77
2021/07/06 02:12:33;;;;;;;1.15;0.80;;;19.20;92.40;;;;;;4977871;28;20069;-77
2021/07/06 02:15:00;;;;;;;1.65;1.10;;;19.20;92.40;;;;;;4995718;28;20470;-77
2021/07/06 02:17:26;;;;;;;1.85;1.00;;;19.20;92.40;;;;;;4978552;28;20418;-77
2021/07/06 02:19:51;;;;;;;0.85;0.75;;;19.20;92.40;;;;;;4977620;28;20498;-77
2021/07/06 02:22:18;;;;;;;2.40;0.90;;;19.20;92.40;;;;;;4978487;28;20462;-77
2021/07/06 02:24:45;;;;;;;0.93;0.70;;;19.20;92.40;;;;;;4995332;28;20046;-77
2021/07/06 02:27:10;;;;;;;1.00;0.80;;;19.20;92.40;;;;;;4995824;28;20022;-77
2021/07/06 02:29:37;;;;;;;1.00;0.80;;;19.20;92.40;;;;;;4995124;28;20356;-77
2021/07/06 02:32:02;;;;;;;2.08;1.00;;;19.20;92.50;;;;;;4995702;28;20026;-77
2021/07/06 02:34:28;;;;;;;3.33;0.95;;;19.10;92.60;;;;;;4978145;28;20077;-77
2021/07/06 02:36:54;;;;;;;1.10;0.80;;;19.10;92.70;;;;;;4977562;28;20045;-77
2021/07/06 02:39:20;;;;;;;6.72;0.90;;;19.00;92.70;;;;;;4995515;28;20026;-77
2021/07/06 02:41:45;;;;;;;1.48;0.90;;;19.00;92.80;;;;;;4977381;28;20526;-77
2021/07/06 02:44:11;;;;;;;4.13;1.20;;;19.00;92.90;;;;;;4977918;28;20024;-76
2021/07/06 02:46:36;;;;;;;1.98;1.10;;;18.90;92.90;;;;;;4977387;28;20109;-76
2021/07/06 02:49:02;;;;;;;1.50;1.30;;;18.90;92.90;;;;;;4977858;28;20019;-78
2021/07/06 02:51:28;;;;;;;1.77;1.10;;;18.90;92.90;;;;;;4993964;28;20117;-76
2021/07/06 02:53:53;;;;;;;1.75;1.08;;;18.90;93.00;;;;;;4994494;28;20105;-76
2021/07/06 02:56:19;;;;;;;2.45;1.10;;;18.90;93.00;;;;;;4977717;28;20117;-76
2021/07/06 02:58:45;;;;;;;2.40;1.15;;;18.90;93.10;;;;;;4977142;28;20042;-77
2021/07/06 03:01:10;;;;;;;1.88;1.17;;;18.90;93.10;;;;;;4977741;28;20030;-77
2021/07/06 03:03:36;;;;;;;2.17;1.10;;;18.90;93.10;;;;;;4976752;28;20483;-77
2021/07/06 03:06:02;;;;;;;1.25;0.95;;;18.80;93.40;;;;;;4977545;28;20026;-77
2021/07/06 03:08:30;;;;;;;1.98;1.17;;;18.80;93.20;;;;;;4995331;28;20033;-76
2021/07/06 03:10:56;;;;;;;1.90;0.90;;;18.80;93.30;;;;;;4976505;28;20069;-77
2021/07/06 03:13:22;;;;;;;1.48;1.10;;;18.80;93.30;;;;;;4977432;28;20023;-76
2021/07/06 03:15:48;;;;;;;1.02;0.82;;;18.80;93.30;;;;;;4994545;28;20431;-76
2021/07/06 03:18:13;;;;;;;1.65;1.30;;;18.80;93.30;;;;;;4970340;28;20073;-76
2021/07/06 03:20:40;;;;;;;1.90;1.00;;;18.80;93.30;;;;;;4954271;29;20463;-77
2021/07/06 03:23:05;;;;;;;1.35;1.00;;;18.80;93.30;;;;;;4954706;29;20019;-76
2021/07/06 03:25:35;;;;;;;2.45;1.30;;;18.80;93.30;;;;;;4954402;29;20434;-77
2021/07/06 03:28:02;;;;;;;1.95;1.02;;;18.80;93.30;;;;;;4954691;29;20472;-76
2021/07/06 03:30:33;;;;;;;2.58;1.13;;;18.80;93.30;;;;;;4954538;29;20046;-77
2021/07/06 03:33:01;;;;;;;2.33;1.35;;;18.80;93.30;;;;;;4955647;28;20060;-76
2021/07/06 03:35:27;;;;;;;2.35;1.40;;;18.80;93.30;;;;;;4954535;29;20023;-76
2021/07/06 03:37:53;;;;;;;3.33;1.65;;;18.80;93.30;;;;;;4953998;29;20039;-77
2021/07/06 03:40:19;;;;;;;2.00;1.40;;;18.80;93.40;;;;;;4954473;29;20039;-76
2021/07/06 03:42:45;;;;;;;3.90;1.85;;;18.80;93.40;;;;;;4953787;29;20034;-76
2021/07/06 03:45:13;;;;;;;1.73;1.17;;;18.80;93.40;;;;;;4955930;28;20031;-76
2021/07/06 03:47:39;;;;;;;2.90;1.25;;;18.80;93.50;;;;;;4955029;28;20027;-77
2021/07/06 03:50:08;;;;;;;1.60;1.08;;;18.80;93.50;;;;;;4955567;28;20031;-76
2021/07/06 03:52:34;;;;;;;1.35;1.00;;;18.70;93.40;;;;;;4954263;29;20054;-76
2021/07/06 03:55:00;;;;;;;3.45;1.33;;;18.80;93.50;;;;;;4953643;29;20168;-76
2021/07/06 03:57:28;;;;;;;5.32;1.13;;;18.70;93.40;;;;;;4955440;29;20447;-76
2021/07/06 03:59:59;;;;;;;2.08;0.90;;;18.80;93.40;;;;;;4954824;28;20035;-76
2021/07/06 04:02:24;;;;;;;1.65;0.90;;;18.80;93.40;;;;;;4955031;28;20516;-76
2021/07/06 04:04:50;;;;;;;2.30;1.13;;;18.80;93.40;;;;;;4954650;29;20031;-76
2021/07/06 04:07:16;;;;;;;2.95;1.05;;;18.90;93.30;;;;;;4953971;29;20082;-77
2021/07/06 04:09:42;;;;;;;2.33;1.10;;;18.90;93.30;;;;;;4953350;29;20027;-77
2021/07/06 04:12:08;;;;;;;1.67;0.90;;;18.90;93.20;;;;;;4954175;29;20367;-77
2021/07/06 04:14:33;;;;;;;1.73;1.30;;;18.90;93.20;;;;;;4953859;29;20474;-77
2021/07/06 04:16:59;;;;;;;1.60;1.00;;;19.00;93.20;;;;;;4954572;29;20038;-77
2021/07/06 04:19:24;;;;;;;2.13;1.40;;;19.00;93.20;;;;;;4953747;28;20083;-76
2021/07/06 04:21:50;;;;;;;3.45;1.50;;;19.00;93.20;;;;;;4953147;29;20089;-77
2021/07/06 04:24:16;;;;;;;3.88;1.73;;;19.00;93.10;;;;;;4953696;29;20024;-77
2021/07/06 04:26:41;;;;;;;1.90;1.38;;;19.00;93.10;;;;;;4954026;29;20035;-77
2021/07/06 04:29:07;;;;;;;2.63;1.38;;;19.00;93.10;;;;;;4953489;29;20027;-76
2021/07/06 04:31:33;;;;;;;2.15;1.10;;;19.10;93.10;;;;;;4954498;29;20039;-76
2021/07/06 04:33:58;;;;;;;2.75;1.35;;;19.10;93.10;;;;;;4952846;29;20023;-76
2021/07/06 04:36:24;;;;;;;4.53;1.38;;;19.10;93.00;;;;;;4953437;29;20079;-76
2021/07/06 04:38:49;;;;;;;3.40;1.50;;;19.20;93.00;;;;;;4952752;29;20431;-76
2021/07/06 04:41:15;;;;;;;2.85;1.50;;;19.20;93.00;;;;;;4953390;29;20035;-76
2021/07/06 04:43:41;;;;;;;3.35;1.63;;;19.20;93.00;;;;;;4952655;29;20033;-80
2021/07/06 04:46:06;;;;;;;4.50;1.55;;;19.20;92.90;;;;;;4954372;28;20050;-76
2021/07/06 04:48:32;;;;;;;3.65;1.40;;;19.20;92.90;;;;;;4954276;28;20456;-76
2021/07/06 04:51:04;;;;;;;2.40;1.50;;;19.30;92.90;;;;;;4953805;29;20035;-76
2021/07/06 04:53:30;;;;;;;4.05;1.70;;;19.30;92.90;;;;;;4954531;28;20416;-76
2021/07/06 04:55:56;;;;;;;2.53;1.48;;;19.30;92.90;;;;;;4953838;28;20078;-77
2021/07/06 04:58:21;;;;;;;3.67;1.23;;;19.30;92.80;;;;;;4953030;29;20042;-76
2021/07/06 05:00:47;;;;;;;2.13;1.20;;;19.30;92.80;;;;;;4952450;29;20061;-77
2021/07/06 05:03:13;;;;;;;1.55;1.10;;;19.40;92.80;;;;;;4953060;29;20027;-76
2021/07/06 05:05:40;;;;;;;3.03;1.45;;;19.40;92.70;;;;;;4954064;29;20034;-76
2021/07/06 05:08:09;;;;;;;3.25;1.38;;;19.40;92.70;;;;;;4952307;29;20015;-76
2021/07/06 05:10:35;;;;;;;3.17;1.23;;;19.40;92.70;;;;;;4952810;29;20027;-76
2021/07/06 05:13:01;;;;;;;3.42;1.02;;;19.40;92.70;;;;;;4952205;29;20093;-76
2021/07/06 05:15:27;;;;;;;1.67;0.98;;;19.40;92.60;;;;;;4952162;28;20057;-76
2021/07/06 05:17:53;;;;;;;1.75;1.08;;;19.40;92.50;;;;;;4953875;28;20336;-76
2021/07/06 05:20:19;;;;;;;1.50;1.20;;;19.50;92.50;;;;;;4975265;28;20038;-76
2021/07/06 05:22:44;;;;;;;1.35;0.90;;;19.50;92.40;;;;;;4992422;28;20534;-76
2021/07/06 05:25:10;;;;;;;2.45;1.50;;;19.50;92.40;;;;;;4975471;28;20029;-76
2021/07/06 05:27:37;;;;;;;3.72;1.42;;;19.60;92.40;;;;;;4975209;28;20022;-77
2021/07/06 05:30:05;;;;;;;3.90;1.30;;;19.60;92.30;;;;;;4974562;28;20026;-77
2021/07/06 05:32:31;;;;;;;2.60;1.20;;;19.60;92.30;;;;;;4975048;28;20022;-77
2021/07/06 05:34:57;;;;;;;6.65;1.42;;;19.60;92.30;;;;;;4974556;28;20023;-76
2021/07/06 05:37:22;;;;;;;2.33;1.25;;;19.60;92.30;;;;;;4975118;28;20370;-76
2021/07/06 05:39:48;;;;;;;5.30;1.60;;;19.60;92.30;;;;;;4992009;28;20480;-76
2021/07/06 05:42:14;;;;;;;0.85;0.80;;;19.60;92.50;;;;;;4975043;28;20370;-76
2021/07/06 05:44:43;;;;;;;2.15;1.20;;;19.60;92.20;;;;;;4992201;28;20080;-76
2021/07/06 05:47:08;;;;;;;2.70;1.42;;;19.60;92.20;;;;;;4974213;28;20296;-77
2021/07/06 05:49:34;;;;;;;2.83;0.85;;;19.70;92.10;;;;;;4975074;28;20045;-76
2021/07/06 05:52:00;;;;;;;2.53;1.38;;;19.70;92.10;;;;;;4974424;28;20109;-77
2021/07/06 05:54:25;;;;;;;1.73;1.10;;;19.70;92.10;;;;;;4975232;28;20437;-76
2021/07/06 05:56:51;;;;;;;1.45;1.13;;;19.70;92.00;;;;;;4974391;28;20022;-77
2021/07/06 05:59:17;;;;;;;3.33;1.20;;;19.70;91.90;;;;;;4975232;28;20041;-77
2021/07/06 06:01:42;;;;;;;1.98;1.30;;;19.80;91.90;;;;;;4974975;28;20462;-76
2021/07/06 06:04:08;;;;;;;2.47;0.93;;;19.80;91.80;;;;;;4974200;28;20474;-77
2021/07/06 06:06:34;;;;;;;2.40;1.50;;;19.80;91.70;;;;;;4992272;28;20108;-76
2021/07/06 06:08:59;;;;;;;1.65;1.25;;;19.90;91.70;;;;;;4991593;28;20121;-76
2021/07/06 06:11:25;;;;;;;2.50;1.40;;;19.90;91.70;;;;;;4974805;28;20037;-76
2021/07/06 06:13:51;;;;;;;3.25;1.38;;;19.90;91.70;;;;;;4974157;28;20474;-76
2021/07/06 06:16:16;;;;;;;2.80;1.15;;;19.90;91.70;;;;;;4974759;28;20091;-76
2021/07/06 06:18:42;;;;;;;2.40;1.02;;;19.90;91.60;;;;;;4991879;28;20478;-77
2021/07/06 06:21:07;;;;;;;1.75;1.15;;;19.90;91.60;;;;;;4991220;28;20026;-77
2021/07/06 06:23:33;;;;;;;1.20;1.00;;;19.90;91.60;;;;;;4992335;28;20034;-76
2021/07/06 06:25:59;;;;;;;3.90;1.25;;;19.90;91.60;;;;;;4992896;28;20058;-77
2021/07/06 06:28:25;;;;;;;2.85;0.93;;;19.90;91.60;;;;;;4978119;28;20122;-77
2021/07/06 06:30:50;;;;;;;2.40;1.02;;;19.90;91.80;;;;;;4977552;28;20129;-77
2021/07/06 06:33:16;;;;;;;2.50;1.00;;;20.00;91.50;;;;;;4978141;28;20028;-77
2021/07/06 06:35:42;;;;;;;1.45;1.08;;;20.00;91.50;;;;;;4978097;28;20084;-77
2021/07/06 06:38:08;;;;;;;2.40;1.20;;;20.00;91.40;;;;;;4994972;28;20058;-77
2021/07/06 06:40:34;;;;;;;1.70;1.30;;;20.10;91.40;;;;;;4977989;28;20041;-76
2021/07/06 06:42:59;;;;;;;3.08;1.40;;;20.10;91.40;;;;;;4977440;28;20034;-75
2021/07/06 06:45:30;;;;;;;2.22;1.27;;;20.10;91.40;;;;;;4977839;28;20063;-75
2021/07/06 06:47:56;;;;;;;3.33;1.55;;;20.10;91.30;;;;;;4994969;28;20100;-76
2021/07/06 06:50:22;;;;;;;2.55;1.23;;;20.10;91.30;;;;;;4995458;28;20538;-75
2021/07/06 06:52:47;;;;;;;2.65;1.38;;;20.10;91.30;;;;;;4995687;28;20033;-75
2021/07/06 06:55:13;;;;;;;2.55;1.67;;;20.20;91.30;;;;;;4977112;28;20422;-76
2021/07/06 06:57:39;;;;;;;2.33;1.27;;;20.20;91.30;;;;;;4995188;28;20498;-76
2021/07/06 07:00:08;;;;;;;2.25;0.98;;;20.20;91.30;;;;;;4994225;28;20026;-76
2021/07/06 07:02:33;;;;;;;2.30;1.15;;;20.30;91.30;;;;;;4977436;28;20474;-77
2021/07/06 07:04:59;;;;;;;2.38;1.42;;;20.30;91.20;;;;;;4976764;28;20137;-76
2021/07/06 07:07:25;;;;;;;2.28;1.27;;;20.30;91.20;;;;;;4977484;28;20032;-77
2021/07/06 07:09:51;;;;;;;2.85;1.48;;;20.30;91.20;;;;;;4977020;28;20117;-80
2021/07/06 07:12:18;;;;;;;1.83;1.20;;;20.40;91.20;;;;;;4977428;28;20104;-76
2021/07/06 07:14:44;;;;;;;4.35;1.27;;;20.40;91.10;;;;;;4977280;28;20410;-76
2021/07/06 07:17:10;;;;;;;1.98;1.30;;;20.40;91.10;;;;;;4976769;28;20033;-76
2021/07/06 07:19:36;;;;;;;3.17;1.27;;;20.50;91.00;;;;;;4958903;28;20407;-76
2021/07/06 07:22:03;;;;;;;3.60;1.20;;;20.50;91.00;;;;;;4954230;29;20031;-76
2021/07/06 07:24:29;;;;;;;2.42;1.20;;;20.60;90.90;;;;;;4955761;28;20027;-75
2021/07/06 07:26:55;;;;;;;1.48;1.23;;;20.60;90.90;;;;;;4954990;29;20027;-77
2021/07/06 07:29:21;;;;;;;1.73;1.00;;;20.60;90.80;;;;;;4954321;29;20031;-75
2021/07/06 07:31:46;;;;;;;3.08;1.50;;;20.60;90.80;;;;;;4954634;29;20035;-76
2021/07/06 07:34:12;;;;;;;1.60;1.10;;;20.70;90.80;;;;;;4953794;29;20034;-76
2021/07/06 07:36:41;;;;;;;2.28;1.30;;;20.70;90.70;;;;;;4954366;28;20114;-76
2021/07/06 07:39:07;;;;;;;4.35;1.20;;;20.70;90.70;;;;;;4954670;28;20023;-76
2021/07/06 07:41:33;;;;;;;2.92;1.45;;;20.80;90.70;;;;;;4955681;28;20042;-76
2021/07/06 07:43:59;;;;;;;2.17;1.30;;;20.80;90.60;;;;;;4953726;29;20022;-76
2021/07/06 07:46:25;;;;;;;3.05;1.33;;;20.80;90.60;;;;;;4954334;29;20448;-76
2021/07/06 07:48:51;;;;;;;2.75;1.30;;;20.80;90.50;;;;;;4954261;29;20031;-76
2021/07/06 07:51:18;;;;;;;1.77;1.10;;;20.80;90.50;;;;;;4953596;29;20436;-76
2021/07/06 07:53:45;;;;;;;3.15;1.00;;;20.70;90.50;;;;;;4954095;29;20023;-76
2021/07/06 07:56:12;;;;;;;3.42;1.50;;;20.70;90.40;;;;;;4953282;29;20034;-75
2021/07/06 07:58:37;;;;;;;1.70;0.80;;;20.70;90.40;;;;;;4954335;29;20110;-75
2021/07/06 08:01:04;;;;;;;2.38;1.15;;;20.80;90.20;;;;;;4954328;28;20110;-75
2021/07/06 08:03:29;;;;;;;1.17;0.70;;;20.80;89.80;;;;;;4953943;29;20070;-76
2021/07/06 08:05:57;;;;;;;2.70;0.88;;;20.90;89.30;;;;;;4954676;28;20027;-77
2021/07/06 08:08:23;;;;;;;2.22;0.57;;;20.90;89.00;;;;;;4955173;28;20031;-75
2021/07/06 08:10:52;;;;;;;1.75;0.70;;;20.90;88.40;;;;;;4953850;29;20034;-75
2021/07/06 08:13:22;;;;;;;1.38;0.80;;;21.00;88.30;;;;;;4954499;28;20035;-76
2021/07/06 08:15:48;;;;;;;1.00;0.73;;;21.00;87.50;;;;;;4953785;29;20035;-75
2021/07/06 08:18:14;;;;;;;0.75;0.50;;;20.90;87.20;;;;;;4961542;28;20104;-75
2021/07/06 08:20:40;;;;;;;0.68;0.50;;;21.00;87.10;;;;;;4976377;28;20113;-76
2021/07/06 08:23:06;;;;;;;1.02;0.65;;;20.90;86.80;;;;;;4975616;28;20128;-75
2021/07/06 08:25:31;;;;;;;1.05;0.75;;;20.80;87.00;;;;;;4993280;28;20474;-75
2021/07/06 08:27:57;;;;;;;1.50;0.47;;;20.80;87.20;;;;;;4975436;28;20022;-75
2021/07/06 08:30:23;;;;;;;3.03;0.73;;;20.70;87.30;;;;;;4993488;28;20383;-76
2021/07/06 08:32:48;;;;;;;0.90;0.70;;;20.80;87.00;;;;;;4975727;28;20112;-75
2021/07/06 08:35:14;;;;;;;1.45;0.80;;;20.80;86.50;;;;;;4992846;28;20077;-76
2021/07/06 08:37:40;;;;;;;1.75;0.70;;;20.80;86.40;;;;;;4975696;28;20084;-75
2021/07/06 08:40:08;;;;;;;1.63;0.60;;;20.90;86.00;;;;;;4975182;28;20034;-75
2021/07/06 08:42:37;;;;;;;1.50;0.70;;;21.00;85.20;;;;;;4975915;28;20018;-75
2021/07/06 08:45:04;;;;;;;0.95;0.85;;;21.00;85.10;;;;;;4992589;28;20025;-76
2021/07/06 08:47:30;;;;;;;1.50;0.65;;;21.10;84.50;;;;;;4975695;28;20105;-77
2021/07/06 08:49:56;;;;;;;1.25;0.80;;;21.20;83.80;;;;;;4993072;28;20038;-76
2021/07/06 08:52:23;;;;;;;2.58;0.75;;;21.30;83.50;;;;;;4992721;28;20030;-76
2021/07/06 08:54:50;;;;;;;1.02;0.70;;;21.30;83.20;;;;;;4993042;28;20491;-76
2021/07/06 08:57:21;;;;;;;5.63;0.80;;;21.30;83.00;;;;;;4975294;28;20037;-76
2021/07/06 08:59:48;;;;;;;1.58;0.45;;;21.40;82.50;;;;;;4975603;28;20037;-76
2021/07/06 09:02:19;;;;;;;0.90;0.63;;;21.30;81.90;;;;;;4974548;28;20042;-76
2021/07/06 09:04:47;;;;;;;0.60;0.52;;;21.30;81.80;;;;;;4992705;28;20097;-76
2021/07/06 09:07:14;;;;;;;0.88;0.70;;;21.30;81.80;;;;;;4991866;28;20343;-76
2021/07/06 09:09:40;;;;;;;1.60;0.73;;;21.20;81.60;;;;;;4975290;28;20022;-76
2021/07/06 09:12:07;;;;;;;2.42;0.70;;;21.20;81.60;;;;;;4992195;28;20475;-76
2021/07/06 09:14:33;;;;;;;2.08;0.70;;;21.10;81.60;;;;;;4992720;28;20022;-76
2021/07/06 09:17:23;;;;;;;0.75;0.55;;;21.10;81.60;;;;;;4975191;28;20118;-76
2021/07/06 09:19:51;;;;;;;1.23;0.75;;;21.10;81.80;;;;;;4975128;28;20049;-76
2021/07/06 09:22:24;;;;;;;0.70;0.60;;;21.10;81.50;;;;;;4974714;28;20109;-76
2021/07/06 09:25:10;;;;;;;1.15;0.52;;;21.10;81.40;;;;;;4975312;28;20454;-76
2021/07/06 09:27:37;;;;;;;2.13;0.80;;;21.10;80.80;;;;;;4975353;28;20026;-77
2021/07/06 09:30:22;;;;;;;0.95;0.60;;;21.00;80.40;;;;;;4974419;28;20036;-77
2021/07/06 09:32:50;;;;;;;1.63;0.77;;;21.10;80.60;;;;;;4975260;28;20367;-76
2021/07/06 09:35:25;;;;;;;1.75;0.70;;;21.20;79.80;;;;;;4974420;28;20029;-76
2021/07/06 09:37:57;;;;;;;0.98;0.70;;;21.30;79.20;;;;;;4992593;28;20028;-77
2021/07/06 09:40:38;;;;;;;6.72;0.73;;;21.40;78.70;;;;;;4974655;28;20038;-77
2021/07/06 09:43:26;;;;;;;0.82;0.57;;;21.40;78.50;;;;;;4974038;28;20030;-77
2021/07/06 09:46:05;;;;;;;1.00;0.63;;;21.40;78.60;;;;;;4974829;28;20034;-76
2021/07/06 09:48:33;;;;;;;0.55;0.50;;;21.40;78.50;;;;;;4974958;28;20467;-76
2021/07/06 09:51:19;;;;;;;1.33;0.40;;;21.30;78.70;;;;;;4974901;28;20129;-78
2021/07/06 09:53:50;;;;;;;0.73;0.50;;;21.50;78.70;;;;;;4992344;28;20022;-75
2021/07/06 09:56:18;;;;;;;0.82;0.60;;;21.50;78.50;;;;;;4991507;28;20074;-76
2021/07/06 09:58:57;;;;;;;0.95;0.50;;;21.60;78.20;;;;;;4974737;28;20023;-76
2021/07/06 10:01:25;;;;;;;1.73;1.63;;;21.60;78.10;;;;;;4976360;28;20626;-77
2021/07/06 10:03:52;;;;;;;0.70;0.70;;;21.50;78.10;;;;;;4978510;28;20335;-76
2021/07/06 10:06:26;;;;;;;1.63;0.77;;;21.60;78.40;;;;;;4977601;28;20431;-76
2021/07/06 10:08:53;;;;;;;0.75;0.60;;;21.50;78.10;;;;;;4978576;28;20037;-76
2021/07/06 10:11:20;;;;;;;1.10;0.70;;;21.50;77.70;;;;;;4995016;28;20035;-76
2021/07/06 10:13:46;;;;;;;1.58;0.98;;;21.40;77.00;;;;;;4978392;28;20462;-76
2021/07/06 10:16:15;;;;;;;1.73;1.15;;;21.40;77.40;;;;;;4977831;28;20031;-76
2021/07/06 10:18:42;;;;;;;2.35;0.60;;;21.40;77.30;;;;;;4969598;28;20452;-76
2021/07/06 10:21:07;;;;;;;2.40;0.50;;;21.50;77.30;;;;;;4955322;29;20039;-76
2021/07/06 10:23:34;;;;;;;5.22;0.80;;;21.40;76.60;;;;;;4955879;29;20490;-76
2021/07/06 10:26:03;;;;;;;0.80;0.55;;;21.50;76.40;;;;;;4956855;28;20027;-76
2021/07/06 10:28:30;;;;;;;1.00;0.70;;;21.50;76.30;;;;;;4956309;28;20050;-76
2021/07/06 10:31:14;;;;;;;2.70;0.80;;;21.60;76.20;;;;;;4956511;28;20035;-76
2021/07/06 10:33:41;;;;;;;3.25;0.88;;;21.60;76.00;;;;;;4955691;29;20024;-75
2021/07/06 10:36:07;;;;;;;1.42;0.80;;;21.60;76.00;;;;;;4956312;28;20023;-77
2021/07/06 10:38:32;;;;;;;1.95;0.70;;;21.70;75.60;;;;;;4955541;29;20038;-76
2021/07/06 10:41:08;;;;;;;1.38;0.70;;;21.70;75.70;;;;;;4955370;29;20028;-76
2021/07/06 10:43:41;;;;;;;0.68;0.57;;;21.80;75.50;;;;;;4955668;29;20083;-75
2021/07/06 10:46:32;;;;;;;1.70;0.70;;;21.80;75.60;;;;;;4954590;29;20027;-76
2021/07/06 10:49:02;;;;;;;0.75;0.55;;;21.80;75.00;;;;;;4955370;29;20074;-76
2021/07/06 10:51:37;;;;;;;0.93;0.70;;;22.00;74.90;;;;;;4955744;28;20440;-76
2021/07/06 10:54:07;;;;;;;2.38;1.00;;;22.20;74.10;;;;;;4956579;28;20079;-76
2021/07/06 10:56:34;;;;;;;2.05;1.00;;;22.20;73.50;;;;;;4956234;29;20031;-76
2021/07/06 10:59:02;;;;;;;2.83;0.90;;;22.20;73.20;;;;;;4955197;29;20023;-76
2021/07/06 11:01:37;;;;;;;1.98;0.80;;;22.10;73.20;;;;;;4954533;29;20035;-76
2021/07/06 11:04:07;;;;;;;0.55;0.55;;;22.00;73.30;;;;;;4955173;29;20374;-78
2021/07/06 11:06:46;;;;;;;1.58;0.68;;;22.00;72.70;;;;;;4955152;29;20490;-77
2021/07/06 11:09:18;;;;;;;2.08;0.80;;;22.00;72.50;;;;;;4954111;29;20089;-77
2021/07/06 11:11:44;;;;;;;3.58;0.77;;;22.00;72.40;;;;;;4955457;28;20054;-77
2021/07/06 11:14:20;;;;;;;1.92;0.65;;;22.00;70.80;;;;;;4953749;29;20117;-77
2021/07/06 11:17:00;;;;;;;2.70;0.80;;;21.90;70.10;;;;;;4954694;29;20324;-77
2021/07/06 11:19:33;;;;;;;3.28;0.70;;;22.00;70.10;;;;;;4953962;28;20142;-77
2021/07/06 11:22:13;;;;;;;4.70;0.80;;;22.00;68.60;;;;;;4954993;29;20046;-76
2021/07/06 11:24:42;;;;;;;2.35;0.60;;;22.10;67.40;;;;;;4956038;28;20031;-76
2021/07/06 11:27:09;;;;;;;1.42;0.60;;;22.20;67.00;;;;;;4955802;28;20027;-77
2021/07/06 11:29:39;;;;;;;1.05;0.55;;;22.30;66.00;;;;;;4954582;29;20026;-75
2021/07/06 11:32:17;;;;;;;3.72;0.95;;;22.30;65.10;;;;;;4954659;29;20029;-76
2021/07/06 11:34:45;;;;;;;2.60;0.90;;;22.30;65.10;;;;;;4954460;29;20078;-76
2021/07/06 11:37:14;;;;;;;2.97;0.70;;;22.40;65.30;;;;;;4955192;28;20034;-76
2021/07/06 11:39:40;;;;;;;2.20;0.70;;;22.40;66.00;;;;;;4954493;29;20027;-75
2021/07/06 11:42:06;;;;;;;1.75;0.60;;;22.50;65.30;;;;;;4954416;29;20023;-76
2021/07/06 11:44:32;;;;;;;2.60;0.77;;;22.50;65.00;;;;;;4953787;29;20023;-76
2021/07/06 11:47:16;;;;;;;1.50;0.80;;;22.60;64.70;;;;;;4954487;29;20142;-77
2021/07/06 11:49:42;;;;;;;3.33;0.88;;;22.50;65.10;;;;;;4955479;28;20027;-76
2021/07/06 11:52:10;;;;;;;4.63;0.68;;;22.60;64.00;;;;;;4955567;28;20099;-75
2021/07/06 11:54:42;;;;;;;1.05;0.40;;;22.70;63.20;;;;;;4954147;29;20032;-76
2021/07/06 11:57:09;;;;;;;1.27;0.65;;;22.80;62.50;;;;;;4954000;29;20420;-75
2021/07/06 11:59:36;;;;;;;1.23;0.60;;;22.90;62.00;;;;;;4954740;28;20027;-75
2021/07/06 12:02:12;;;;;;;4.43;0.60;;;22.90;60.90;;;;;;4955359;28;20046;-75
2021/07/06 12:04:38;;;;;;;1.42;0.50;;;22.90;61.10;;;;;;4955367;28;20046;-76
2021/07/06 12:07:07;;;;;;;1.90;0.77;;;22.80;59.90;;;;;;4955312;28;20467;-74
2021/07/06 12:09:33;;;;;;;0.65;0.50;;;22.80;59.40;;;;;;4952847;29;20059;-75
2021/07/06 12:12:10;;;;;;;1.55;0.65;;;22.80;59.40;;;;;;4955191;28;20024;-76
2021/07/06 12:14:35;;;;;;;1.17;0.57;;;22.90;59.30;;;;;;4953269;29;20051;-76
2021/07/06 12:17:03;;;;;;;1.60;0.60;;;23.10;59.50;;;;;;4955046;29;20065;-77
2021/07/06 12:19:29;;;;;;;3.30;0.75;;;23.30;57.60;;;;;;4977392;28;20046;-77
2021/07/06 12:21:55;;;;;;;4.20;0.82;;;23.40;57.50;;;;;;4993838;28;20376;-77
2021/07/06 12:24:27;;;;;;;1.10;0.30;;;23.40;58.00;;;;;;4975178;28;20019;-78
2021/07/06 12:26:55;;;;;;;0.65;0.50;;;23.60;58.20;;;;;;4976139;28;20025;-75
2021/07/06 12:29:35;;;;;;;0.50;0.40;;;23.70;57.70;;;;;;4975261;28;20022;-76
2021/07/06 12:32:14;;;;;;;3.25;0.70;;;23.80;57.60;;;;;;4993473;28;20037;-76
2021/07/06 12:34:59;;;;;;;3.08;0.73;;;24.00;57.20;;;;;;4976074;28;20018;-76
2021/07/06 12:37:27;;;;;;;1.27;0.60;;;24.00;56.90;;;;;;4992514;28;20027;-76
2021/07/06 12:40:01;;;;;;;1.95;0.57;;;24.00;57.00;;;;;;4975739;28;20387;-76
2021/07/06 12:42:28;;;;;;;0.82;0.47;;;23.90;57.00;;;;;;4992610;28;20026;-76
2021/07/06 12:44:55;;;;;;;2.47;0.70;;;23.80;57.00;;;;;;4975733;28;20076;-76
2021/07/06 12:47:32;;;;;;;1.88;0.60;;;23.80;56.70;;;;;;4975003;28;20058;-76
2021/07/06 12:50:05;;;;;;;1.15;0.68;;;23.90;56.90;;;;;;4993196;28;20041;-75
2021/07/06 12:52:38;;;;;;;2.15;0.70;;;24.00;56.70;;;;;;4975098;28;20022;-75